Time;durP1;ratioP1;P1;durP2;ratioP2;P2;SDS_P1;SDS_P2;PMS_P1;PMS_P2;Temp;Humidity;BMP_temperature;BMP_pressure;BME280_temperature;BME280_humidity;BME280_pressure;Samples;Min_cycle;Max_cycle;Signal;HPM_P1;HPM_P2
2023/12/18 00:01:09;;;;;;;33.40;14.98;;;7.70;99.90;;;;;;5073651;28;20044;-71
2023/12/18 00:03:35;;;;;;;33.28;14.10;;;7.70;99.90;;;;;;5074817;28;20033;-72
2023/12/18 00:06:00;;;;;;;26.88;13.13;;;7.70;99.90;;;;;;5073533;28;20045;-71
2023/12/18 00:08:26;;;;;;;30.80;13.55;;;7.80;99.90;;;;;;5074817;28;20045;-71
2023/12/18 00:10:52;;;;;;;34.25;13.75;;;7.80;99.90;;;;;;5073449;28;20047;-71
2023/12/18 00:13:17;;;;;;;31.92;14.20;;;7.80;99.90;;;;;;5073459;28;20037;-71
2023/12/18 00:15:43;;;;;;;33.97;13.55;;;7.80;99.90;;;;;;5073405;28;20059;-72
2023/12/18 00:18:08;;;;;;;31.98;14.40;;;7.80;99.90;;;;;;5073377;28;20067;-72
2023/12/18 00:20:34;;;;;;;26.63;13.43;;;7.80;99.90;;;;;;5073230;28;20048;-71
2023/12/18 00:23:00;;;;;;;36.65;14.80;;;7.70;99.90;;;;;;5073013;28;20045;-72
2023/12/18 00:25:25;;;;;;;36.05;15.30;;;7.70;99.90;;;;;;5073231;28;20079;-72
2023/12/18 00:27:51;;;;;;;28.95;13.93;;;7.70;99.90;;;;;;5073115;28;20078;-72
2023/12/18 00:30:16;;;;;;;33.42;15.07;;;7.70;99.90;;;;;;5074594;28;20029;-72
2023/12/18 00:32:42;;;;;;;27.73;14.75;;;7.70;99.90;;;;;;5073000;28;20048;-72
2023/12/18 00:35:07;;;;;;;26.80;14.32;;;7.60;99.90;;;;;;5074541;28;20036;-72
2023/12/18 00:37:33;;;;;;;29.17;13.90;;;7.60;99.90;;;;;;5074198;28;20554;-72
2023/12/18 00:39:59;;;;;;;33.30;15.02;;;7.60;99.90;;;;;;5073150;28;20044;-72
2023/12/18 00:42:25;;;;;;;35.47;14.38;;;7.60;99.90;;;;;;5074300;28;20409;-71
2023/12/18 00:44:50;;;;;;;31.08;14.60;;;7.60;99.90;;;;;;5072805;28;20040;-71
2023/12/18 00:47:18;;;;;;;32.17;15.02;;;7.60;99.90;;;;;;5074218;28;20133;-72
2023/12/18 00:49:43;;;;;;;31.45;15.10;;;7.60;99.90;;;;;;5072704;28;20386;-72
2023/12/18 00:52:09;;;;;;;32.53;15.02;;;7.60;99.90;;;;;;5072599;28;20089;-72
2023/12/18 00:54:35;;;;;;;31.70;14.50;;;7.60;99.90;;;;;;5072630;28;20071;-72
2023/12/18 00:57:00;;;;;;;32.97;14.85;;;7.70;99.90;;;;;;5074134;28;20042;-72
2023/12/18 00:59:26;;;;;;;32.30;14.50;;;7.70;99.90;;;;;;5072270;28;20419;-72
2023/12/18 01:01:51;;;;;;;29.35;13.65;;;7.70;99.90;;;;;;5072432;28;20075;-72
2023/12/18 01:04:17;;;;;;;35.80;14.45;;;7.70;99.90;;;;;;5073988;28;20043;-71
2023/12/18 01:06:43;;;;;;;30.45;15.00;;;7.70;99.90;;;;;;5073846;28;20485;-71
2023/12/18 01:09:08;;;;;;;31.60;14.63;;;7.70;99.90;;;;;;5073841;28;20032;-72
2023/12/18 01:11:34;;;;;;;31.00;14.00;;;7.70;99.90;;;;;;5072531;28;20123;-71
2023/12/18 01:14:00;;;;;;;27.40;14.15;;;7.70;99.90;;;;;;5073793;28;20047;-71
2023/12/18 01:16:26;;;;;;;35.53;14.90;;;7.70;99.90;;;;;;5072253;28;20044;-73
2023/12/18 01:18:51;;;;;;;30.27;15.10;;;7.70;99.90;;;;;;5072458;28;20040;-72
2023/12/18 01:21:17;;;;;;;28.15;13.93;;;7.70;99.90;;;;;;5072363;28;20417;-71
2023/12/18 01:23:42;;;;;;;33.20;14.15;;;7.70;99.90;;;;;;5073324;28;20497;-71
2023/12/18 01:26:08;;;;;;;35.53;13.35;;;7.70;99.90;;;;;;5072045;28;20412;-71
2023/12/18 01:28:34;;;;;;;29.42;13.65;;;7.70;99.90;;;;;;5072076;28;20036;-71
2023/12/18 01:30:59;;;;;;;28.77;13.98;;;7.70;99.90;;;;;;5072017;28;20064;-72
2023/12/18 01:33:25;;;;;;;30.23;14.10;;;7.70;99.90;;;;;;5072289;28;20058;-72
2023/12/18 01:35:51;;;;;;;34.15;14.18;;;7.70;99.90;;;;;;5073391;28;20038;-72
2023/12/18 01:38:16;;;;;;;32.92;13.73;;;7.70;99.90;;;;;;5072198;28;20044;-72
2023/12/18 01:40:44;;;;;;;31.55;13.75;;;7.70;99.90;;;;;;5073146;28;20489;-71
2023/12/18 01:43:28;;;;;;;29.30;13.85;;;7.70;99.90;;;;;;5073415;28;20048;-71
2023/12/18 01:46:03;;;;;;;28.80;13.60;;;7.80;99.90;;;;;;5071844;28;20448;-72
2023/12/18 01:48:29;;;;;;;25.17;13.55;;;7.80;99.90;;;;;;5071828;28;20452;-72
2023/12/18 01:50:57;;;;;;;24.55;13.40;;;7.70;99.90;;;;;;5073265;28;20119;-71
2023/12/18 01:53:32;;;;;;;26.15;13.20;;;7.70;99.90;;;;;;5073266;28;20087;-71
2023/12/18 01:56:00;;;;;;;36.17;15.63;;;7.70;99.90;;;;;;5071801;28;20113;-71
2023/12/18 01:58:26;;;;;;;37.60;19.88;;;7.70;99.90;;;;;;5073253;28;20029;-71
2023/12/18 02:00:52;;;;;;;32.85;20.50;;;7.70;99.90;;;;;;5073201;28;20459;-71
2023/12/18 02:03:19;;;;;;;45.03;21.80;;;7.80;99.90;;;;;;5072033;28;20081;-72
2023/12/18 02:05:46;;;;;;;39.65;21.73;;;7.80;99.90;;;;;;5073197;28;20037;-72
2023/12/18 02:08:12;;;;;;;43.15;21.92;;;7.80;99.90;;;;;;5071547;28;20045;-72
2023/12/18 02:10:38;;;;;;;44.15;23.13;;;7.80;99.90;;;;;;5071575;28;20048;-72
2023/12/18 02:13:04;;;;;;;41.33;21.73;;;7.80;99.90;;;;;;5077090;28;20036;-72
2023/12/18 02:15:29;;;;;;;39.55;20.83;;;7.80;99.90;;;;;;5058998;28;20085;-72
2023/12/18 02:17:55;;;;;;;33.95;16.63;;;7.80;99.90;;;;;;5075658;28;20098;-72
2023/12/18 02:20:21;;;;;;;31.50;15.73;;;7.80;99.90;;;;;;5076800;28;20051;-72
2023/12/18 02:22:46;;;;;;;29.83;14.90;;;7.80;99.90;;;;;;5075475;28;20040;-71
2023/12/18 02:25:13;;;;;;;31.70;14.98;;;7.80;99.90;;;;;;5075776;28;20046;-72
2023/12/18 02:27:40;;;;;;;34.13;14.57;;;7.80;99.90;;;;;;5075387;28;20075;-72
2023/12/18 02:30:06;;;;;;;26.27;14.35;;;7.80;99.90;;;;;;5076961;28;20047;-72
2023/12/18 02:32:31;;;;;;;29.60;12.85;;;7.80;99.90;;;;;;5075298;28;20535;-71
2023/12/18 02:34:57;;;;;;;31.38;14.57;;;7.80;99.90;;;;;;5076843;28;20041;-72
2023/12/18 02:37:24;;;;;;;30.20;13.48;;;7.80;99.90;;;;;;5075260;28;20431;-72
2023/12/18 02:39:49;;;;;;;26.27;13.85;;;7.80;99.90;;;;;;5075467;28;20169;-72
2023/12/18 02:42:15;;;;;;;35.45;14.85;;;7.80;99.90;;;;;;5076619;28;20044;-71
2023/12/18 02:44:41;;;;;;;29.52;15.02;;;7.80;99.90;;;;;;5075114;28;20045;-71
2023/12/18 02:47:06;;;;;;;25.88;14.50;;;7.80;99.90;;;;;;5075195;28;20072;-72
2023/12/18 02:49:32;;;;;;;27.98;15.10;;;7.80;99.90;;;;;;5075054;28;20032;-72
2023/12/18 02:51:57;;;;;;;29.90;14.85;;;7.80;99.90;;;;;;5074947;28;20040;-72
2023/12/18 02:54:23;;;;;;;27.27;15.60;;;7.80;99.90;;;;;;5074970;28;20040;-72
2023/12/18 02:56:48;;;;;;;32.88;16.08;;;7.80;99.90;;;;;;5076417;28;20061;-72
2023/12/18 02:59:14;;;;;;;32.47;15.93;;;7.80;99.90;;;;;;5076370;28;20036;-72
2023/12/18 03:01:40;;;;;;;28.65;14.77;;;7.80;99.90;;;;;;5075035;28;20040;-71
2023/12/18 03:04:05;;;;;;;30.60;15.13;;;7.80;99.90;;;;;;5076254;28;20508;-71
2023/12/18 03:06:31;;;;;;;31.10;15.32;;;7.80;99.90;;;;;;5074652;28;20059;-71
2023/12/18 03:08:56;;;;;;;28.40;15.23;;;7.70;99.90;;;;;;5074737;28;20040;-72
2023/12/18 03:11:22;;;;;;;30.30;15.63;;;7.80;99.90;;;;;;5074613;28;20131;-72
2023/12/18 03:13:47;;;;;;;29.05;15.63;;;7.80;99.90;;;;;;5074568;28;20094;-72
2023/12/18 03:16:14;;;;;;;30.13;15.38;;;7.70;99.90;;;;;;5074589;28;20042;-72
2023/12/18 03:18:40;;;;;;;32.45;16.73;;;7.80;99.90;;;;;;5076080;28;20173;-72
2023/12/18 03:21:10;;;;;;;31.35;16.15;;;7.70;99.90;;;;;;5074723;28;20497;-72
2023/12/18 03:23:35;;;;;;;33.28;15.32;;;7.70;99.90;;;;;;5074126;28;20102;-72
2023/12/18 03:26:01;;;;;;;29.05;14.02;;;7.70;99.90;;;;;;5074376;28;20044;-72
2023/12/18 03:28:27;;;;;;;31.98;15.32;;;7.80;99.90;;;;;;5074263;28;20127;-71
2023/12/18 03:30:52;;;;;;;31.30;14.85;;;7.80;99.90;;;;;;5074248;28;20599;-71
2023/12/18 03:33:18;;;;;;;29.08;15.77;;;7.70;99.90;;;;;;5074287;28;20037;-72
2023/12/18 03:35:44;;;;;;;31.38;15.40;;;7.70;99.90;;;;;;5075711;28;20039;-72
2023/12/18 03:38:11;;;;;;;38.28;15.63;;;7.70;99.90;;;;;;5074376;28;20044;-72
2023/12/18 03:40:36;;;;;;;31.15;15.02;;;7.70;99.90;;;;;;5075581;28;20048;-72
2023/12/18 03:43:02;;;;;;;30.20;14.80;;;7.70;99.90;;;;;;5075629;28;20039;-72
2023/12/18 03:45:28;;;;;;;28.88;14.30;;;7.80;99.90;;;;;;5075542;28;20036;-72
2023/12/18 03:47:53;;;;;;;30.38;14.52;;;7.80;99.90;;;;;;5073923;28;20079;-72
2023/12/18 03:50:19;;;;;;;29.98;15.38;;;7.80;99.90;;;;;;5073947;28;20098;-72
2023/12/18 03:52:45;;;;;;;30.05;13.93;;;7.80;99.90;;;;;;5075306;28;20040;-72
2023/12/18 03:55:10;;;;;;;27.00;14.70;;;7.80;99.90;;;;;;5073844;28;20047;-71
2023/12/18 03:57:36;;;;;;;28.42;14.77;;;7.80;99.90;;;;;;5073786;28;20047;-71
2023/12/18 04:00:03;;;;;;;27.02;13.80;;;7.80;99.90;;;;;;5073737;28;20040;-72
2023/12/18 04:02:28;;;;;;;29.15;14.98;;;7.80;99.90;;;;;;5073644;28;20044;-71
2023/12/18 04:04:54;;;;;;;28.23;14.32;;;7.80;99.90;;;;;;5075155;28;20040;-71
2023/12/18 04:07:20;;;;;;;30.73;13.85;;;7.80;99.90;;;;;;5073543;28;20072;-71
2023/12/18 04:09:45;;;;;;;25.90;13.20;;;7.80;99.90;;;;;;5075078;28;20064;-71
2023/12/18 04:12:11;;;;;;;25.52;13.70;;;7.80;99.90;;;;;;5074682;28;20045;-71
2023/12/18 04:14:37;;;;;;;27.40;13.57;;;7.80;99.90;;;;;;5075002;28;20108;-72
2023/12/18 04:17:02;;;;;;;25.92;13.88;;;7.80;99.90;;;;;;5073727;28;20074;-72
2023/12/18 04:19:28;;;;;;;29.60;13.10;;;7.90;99.90;;;;;;5073428;28;20500;-72
2023/12/18 04:21:53;;;;;;;30.00;14.07;;;7.90;99.90;;;;;;5074428;28;20042;-71
2023/12/18 04:24:19;;;;;;;32.58;14.00;;;7.90;99.90;;;;;;5073176;28;20048;-71
2023/12/18 04:26:46;;;;;;;23.17;12.57;;;7.90;99.90;;;;;;5074627;28;20051;-71
2023/12/18 04:29:11;;;;;;;31.33;12.75;;;7.90;99.90;;;;;;5073169;28;20413;-71
2023/12/18 04:31:37;;;;;;;24.85;13.13;;;7.90;99.90;;;;;;5073041;28;20040;-71
2023/12/18 04:34:03;;;;;;;32.15;13.90;;;7.90;99.90;;;;;;5072729;28;20045;-71
2023/12/18 04:36:28;;;;;;;29.95;13.10;;;7.90;99.90;;;;;;5074510;28;20401;-71
2023/12/18 04:38:54;;;;;;;28.73;12.80;;;7.90;99.90;;;;;;5074277;28;20506;-73
2023/12/18 04:41:23;;;;;;;29.25;13.77;;;7.90;99.90;;;;;;5072885;28;20045;-73
2023/12/18 04:43:49;;;;;;;27.08;12.98;;;7.90;99.90;;;;;;5074397;28;20037;-73
2023/12/18 04:46:14;;;;;;;26.35;12.43;;;7.90;99.90;;;;;;5056155;28;20047;-73
2023/12/18 04:48:41;;;;;;;26.92;13.18;;;7.90;99.90;;;;;;5073988;28;20067;-72
2023/12/18 04:51:07;;;;;;;28.67;13.20;;;7.90;99.90;;;;;;5073801;28;20396;-72
2023/12/18 04:53:36;;;;;;;21.05;12.52;;;7.90;99.90;;;;;;5072998;28;20036;-71
2023/12/18 04:56:01;;;;;;;29.10;13.82;;;7.90;99.90;;;;;;5074179;28;20120;-72
2023/12/18 04:58:27;;;;;;;28.38;12.80;;;7.90;99.90;;;;;;5072587;28;20119;-72
2023/12/18 05:00:53;;;;;;;26.45;13.35;;;7.90;99.90;;;;;;5072452;28;20044;-71
2023/12/18 05:03:18;;;;;;;30.60;13.50;;;7.90;99.90;;;;;;5072479;28;20051;-71
2023/12/18 05:05:44;;;;;;;26.67;12.40;;;7.90;99.90;;;;;;5072468;28;20037;-71
2023/12/18 05:08:09;;;;;;;25.00;13.07;;;7.90;99.90;;;;;;5072376;28;20059;-72
2023/12/18 05:10:35;;;;;;;24.00;13.52;;;7.90;99.90;;;;;;5072342;28;20048;-71
2023/12/18 05:13:01;;;;;;;30.92;14.38;;;7.90;99.90;;;;;;5072321;28;20040;-71
2023/12/18 05:15:26;;;;;;;32.25;12.55;;;7.90;99.90;;;;;;5073803;28;20032;-71
2023/12/18 05:17:52;;;;;;;27.90;13.18;;;7.90;99.90;;;;;;5073747;28;20041;-71
2023/12/18 05:20:17;;;;;;;28.92;12.93;;;7.90;99.90;;;;;;5072207;28;20412;-71
2023/12/18 05:22:43;;;;;;;26.48;13.10;;;7.90;99.90;;;;;;5071965;28;20077;-71
2023/12/18 05:25:09;;;;;;;29.88;12.40;;;7.90;99.90;;;;;;5072184;28;20052;-72
2023/12/18 05:27:35;;;;;;;24.55;12.02;;;7.90;99.90;;;;;;5072051;28;20083;-71
2023/12/18 05:30:01;;;;;;;25.05;12.57;;;7.90;99.90;;;;;;5073617;28;20064;-72
2023/12/18 05:32:27;;;;;;;29.17;12.55;;;7.90;99.90;;;;;;5072928;28;20035;-71
2023/12/18 05:34:53;;;;;;;21.00;11.52;;;8.00;99.90;;;;;;5072291;28;20485;-71
2023/12/18 05:37:19;;;;;;;23.88;12.60;;;7.90;99.90;;;;;;5072012;28;20098;-71
2023/12/18 05:39:44;;;;;;;27.20;12.43;;;7.90;99.90;;;;;;5073207;28;20048;-71
2023/12/18 05:42:10;;;;;;;24.42;12.43;;;7.90;99.90;;;;;;5073349;28;20062;-71
2023/12/18 05:44:36;;;;;;;29.65;12.98;;;7.90;99.90;;;;;;5071899;28;20036;-71
2023/12/18 05:47:02;;;;;;;32.22;12.85;;;7.90;99.90;;;;;;5070885;28;20054;-71
2023/12/18 05:49:28;;;;;;;29.45;12.60;;;7.90;99.90;;;;;;5071820;28;20045;-72
2023/12/18 05:51:54;;;;;;;33.47;13.15;;;8.00;99.90;;;;;;5071978;28;20056;-71
2023/12/18 05:54:20;;;;;;;28.35;13.77;;;7.90;99.90;;;;;;5073031;28;20033;-71
2023/12/18 05:56:45;;;;;;;33.58;13.85;;;7.90;99.90;;;;;;5073268;28;20075;-71
2023/12/18 05:59:11;;;;;;;29.15;13.38;;;7.90;99.90;;;;;;5071726;28;20052;-71
2023/12/18 06:01:37;;;;;;;25.33;12.68;;;7.90;99.90;;;;;;5071929;28;20127;-71
2023/12/18 06:04:02;;;;;;;28.52;13.73;;;7.90;99.90;;;;;;5073220;28;20482;-72
2023/12/18 06:06:28;;;;;;;29.08;14.65;;;7.90;99.90;;;;;;5071849;28;20049;-71
2023/12/18 06:08:53;;;;;;;30.00;13.80;;;7.90;99.90;;;;;;5073197;28;20520;-72
2023/12/18 06:11:19;;;;;;;27.67;13.00;;;7.90;99.90;;;;;;5071602;28;20155;-71
2023/12/18 06:13:45;;;;;;;33.50;13.52;;;7.90;99.90;;;;;;5073100;28;20055;-71
2023/12/18 06:16:11;;;;;;;29.70;14.68;;;7.90;99.90;;;;;;5071821;28;20036;-71
2023/12/18 06:18:37;;;;;;;28.02;13.30;;;7.90;99.90;;;;;;5071580;28;20405;-73
2023/12/18 06:21:03;;;;;;;22.05;12.75;;;7.90;99.90;;;;;;5071530;28;20059;-71
2023/12/18 06:23:30;;;;;;;30.90;14.00;;;7.90;99.90;;;;;;5071567;28;20052;-71
2023/12/18 06:25:55;;;;;;;26.88;12.73;;;7.90;99.90;;;;;;5071435;28;20591;-72
2023/12/18 06:28:21;;;;;;;24.70;13.43;;;7.90;99.90;;;;;;5072922;28;20076;-71
2023/12/18 06:30:46;;;;;;;28.15;14.75;;;7.90;99.90;;;;;;5072938;28;20396;-72
2023/12/18 06:33:12;;;;;;;26.17;12.85;;;7.90;99.90;;;;;;5071537;28;20047;-72
2023/12/18 06:35:38;;;;;;;31.98;14.65;;;7.90;99.90;;;;;;5071428;28;20041;-72
2023/12/18 06:38:03;;;;;;;26.48;13.95;;;7.90;99.90;;;;;;5071723;28;20037;-72
2023/12/18 06:40:29;;;;;;;28.92;13.65;;;7.90;99.90;;;;;;5072847;28;20477;-71
2023/12/18 06:42:54;;;;;;;27.92;13.98;;;7.90;99.90;;;;;;5072885;28;20039;-72
2023/12/18 06:45:20;;;;;;;29.30;13.90;;;7.90;99.90;;;;;;5071654;28;20044;-71
2023/12/18 06:47:46;;;;;;;23.30;13.52;;;7.90;99.90;;;;;;5071298;28;20497;-71
2023/12/18 06:50:11;;;;;;;30.75;14.80;;;7.90;99.90;;;;;;5071306;28;20119;-71
2023/12/18 06:52:37;;;;;;;32.63;14.35;;;7.90;99.90;;;;;;5071197;28;20033;-71
2023/12/18 06:55:03;;;;;;;28.85;14.80;;;7.90;99.90;;;;;;5071237;28;20485;-71
2023/12/18 06:57:29;;;;;;;30.63;15.30;;;7.90;99.90;;;;;;5073862;28;20085;-71
2023/12/18 06:59:54;;;;;;;30.25;15.45;;;7.90;99.90;;;;;;5074945;28;20500;-71
2023/12/18 07:02:20;;;;;;;30.13;14.52;;;7.90;99.90;;;;;;5074822;28;20040;-71
2023/12/18 07:04:45;;;;;;;25.95;15.45;;;7.90;99.90;;;;;;5075194;28;20174;-71
2023/12/18 07:07:11;;;;;;;28.35;14.63;;;7.90;99.90;;;;;;5075107;28;20041;-71
2023/12/18 07:09:37;;;;;;;24.58;14.68;;;7.90;99.90;;;;;;5074795;28;20486;-69
2023/12/18 07:12:02;;;;;;;32.53;14.65;;;7.90;99.90;;;;;;5074614;28;20048;-69
2023/12/18 07:14:28;;;;;;;35.65;14.93;;;7.90;99.90;;;;;;5074656;28;20047;-69
2023/12/18 07:16:53;;;;;;;32.33;14.57;;;7.90;99.90;;;;;;5074637;28;20040;-69
2023/12/18 07:19:19;;;;;;;27.90;14.32;;;7.90;99.90;;;;;;5074568;28;20045;-69
2023/12/18 07:21:45;;;;;;;28.40;13.75;;;7.90;99.90;;;;;;5074437;28;20127;-69
2023/12/18 07:24:10;;;;;;;28.73;14.05;;;8.00;99.90;;;;;;5074491;28;20083;-69
2023/12/18 07:26:36;;;;;;;29.23;14.05;;;7.90;99.90;;;;;;5074365;28;20098;-69
2023/12/18 07:29:01;;;;;;;22.55;13.75;;;8.00;99.90;;;;;;5074491;28;20048;-69
2023/12/18 07:31:27;;;;;;;25.35;14.27;;;8.00;99.90;;;;;;5074330;28;20044;-69
2023/12/18 07:33:53;;;;;;;33.30;14.27;;;8.00;99.90;;;;;;5075856;28;20119;-69
2023/12/18 07:36:19;;;;;;;25.00;13.77;;;7.90;99.90;;;;;;5074311;28;20093;-69
2023/12/18 07:38:45;;;;;;;35.17;15.20;;;8.00;99.90;;;;;;5074247;28;20048;-69
2023/12/18 07:41:11;;;;;;;27.80;15.20;;;8.00;99.90;;;;;;5075647;28;20040;-69
2023/12/18 07:43:37;;;;;;;29.73;14.85;;;8.00;99.90;;;;;;5075680;28;20048;-69
2023/12/18 07:46:03;;;;;;;29.08;14.43;;;8.00;99.90;;;;;;5057393;28;20229;-69
2023/12/18 07:48:31;;;;;;;29.00;14.90;;;8.00;99.90;;;;;;5073979;28;20094;-69
2023/12/18 07:50:57;;;;;;;28.30;14.25;;;8.00;99.90;;;;;;5073967;28;20046;-69
2023/12/18 07:53:23;;;;;;;28.10;13.65;;;8.00;99.90;;;;;;5074327;28;20040;-69
2023/12/18 07:55:48;;;;;;;29.80;13.68;;;8.00;99.90;;;;;;5057882;28;20036;-69
2023/12/18 07:58:14;;;;;;;28.75;14.65;;;8.10;99.90;;;;;;5074022;28;20055;-69
2023/12/18 08:00:40;;;;;;;31.35;14.75;;;8.10;99.90;;;;;;5075265;28;20037;-69
2023/12/18 08:03:05;;;;;;;29.10;14.70;;;8.10;99.90;;;;;;5073802;28;20386;-69
2023/12/18 08:05:31;;;;;;;29.33;15.63;;;8.10;99.90;;;;;;5075217;28;20042;-69
2023/12/18 08:07:57;;;;;;;28.73;15.07;;;8.10;99.90;;;;;;5073644;28;20048;-70
2023/12/18 08:10:22;;;;;;;25.70;15.10;;;8.00;99.90;;;;;;5055931;28;20033;-70
2023/12/18 08:12:51;;;;;;;32.00;16.20;;;8.00;99.90;;;;;;5073465;28;20161;-70
2023/12/18 08:15:16;;;;;;;28.75;16.73;;;8.00;99.90;;;;;;5075043;28;20047;-70
2023/12/18 08:17:42;;;;;;;30.17;16.48;;;8.00;99.90;;;;;;5073476;28;20040;-70
2023/12/18 08:20:08;;;;;;;28.17;16.40;;;8.00;99.90;;;;;;5074940;28;20044;-70
2023/12/18 08:22:34;;;;;;;26.77;17.30;;;8.00;99.90;;;;;;5073567;28;20060;-70
2023/12/18 08:25:01;;;;;;;29.33;17.77;;;8.00;99.90;;;;;;5073389;28;20169;-70
2023/12/18 08:27:28;;;;;;;29.40;17.45;;;7.90;99.90;;;;;;5073232;28;20097;-70
2023/12/18 08:29:54;;;;;;;30.83;18.00;;;7.90;99.90;;;;;;5073274;28;20083;-70
2023/12/18 08:32:20;;;;;;;33.20;18.02;;;7.90;99.90;;;;;;5074406;28;20071;-70
2023/12/18 08:34:48;;;;;;;32.17;17.52;;;7.90;99.90;;;;;;5073768;28;20065;-70
2023/12/18 08:37:13;;;;;;;32.45;18.17;;;7.90;99.90;;;;;;5073129;28;20055;-70
2023/12/18 08:39:39;;;;;;;27.05;17.33;;;7.90;99.90;;;;;;5073057;28;20040;-70
2023/12/18 08:42:04;;;;;;;31.60;17.75;;;8.00;99.90;;;;;;5073153;28;20052;-70
2023/12/18 08:44:30;;;;;;;32.70;18.35;;;7.90;99.90;;;;;;5074417;28;20535;-70
2023/12/18 08:46:55;;;;;;;35.33;19.27;;;7.90;99.90;;;;;;5072790;28;20052;-70
2023/12/18 08:49:21;;;;;;;31.58;18.20;;;7.90;99.90;;;;;;5074391;28;20040;-70
2023/12/18 08:51:47;;;;;;;34.38;18.38;;;7.90;99.90;;;;;;5072742;28;20045;-70
2023/12/18 08:54:12;;;;;;;37.20;18.85;;;8.00;99.90;;;;;;5074280;28;20090;-70
2023/12/18 08:56:38;;;;;;;31.15;18.60;;;8.00;99.90;;;;;;5072703;28;20123;-70
2023/12/18 08:59:04;;;;;;;32.83;18.73;;;8.00;99.90;;;;;;5074222;28;20103;-70
2023/12/18 09:01:29;;;;;;;31.05;18.30;;;7.90;99.90;;;;;;5074071;28;20447;-70
2023/12/18 09:03:55;;;;;;;33.33;19.00;;;8.00;99.90;;;;;;5072482;28;20043;-70
2023/12/18 09:06:20;;;;;;;38.80;19.40;;;7.90;99.90;;;;;;5072441;28;20091;-70
2023/12/18 09:08:46;;;;;;;31.42;18.65;;;8.00;99.90;;;;;;5072831;28;20044;-70
2023/12/18 09:11:12;;;;;;;35.28;19.30;;;8.00;99.90;;;;;;5072388;28;20037;-70
2023/12/18 09:13:38;;;;;;;26.48;18.80;;;8.00;99.90;;;;;;5072384;28;20111;-70
2023/12/18 09:16:07;;;;;;;36.13;19.13;;;8.00;99.90;;;;;;5072356;28;20493;-70
2023/12/18 09:18:33;;;;;;;30.95;19.48;;;8.00;99.90;;;;;;5072593;28;20059;-70
2023/12/18 09:20:59;;;;;;;33.63;19.83;;;8.00;99.90;;;;;;5072111;28;20043;-70
2023/12/18 09:23:26;;;;;;;35.90;19.70;;;8.00;99.90;;;;;;5073635;28;20033;-70
2023/12/18 09:25:52;;;;;;;30.77;19.13;;;8.00;99.90;;;;;;5072486;28;20033;-70
2023/12/18 09:28:17;;;;;;;31.88;18.77;;;8.10;99.90;;;;;;5073679;28;20050;-70
2023/12/18 09:30:43;;;;;;;32.75;20.30;;;8.10;99.90;;;;;;5072201;28;20070;-70
2023/12/18 09:33:09;;;;;;;33.97;20.00;;;8.10;99.90;;;;;;5072136;28;20093;-70
2023/12/18 09:35:34;;;;;;;39.88;20.02;;;8.10;99.90;;;;;;5072047;28;20041;-70
2023/12/18 09:38:00;;;;;;;33.10;19.85;;;8.10;99.90;;;;;;5072064;28;20124;-70
2023/12/18 09:40:26;;;;;;;34.90;19.67;;;8.10;99.90;;;;;;5072284;28;20036;-70
2023/12/18 09:42:55;;;;;;;30.80;19.58;;;8.10;99.90;;;;;;5072017;28;20051;-70
2023/12/18 09:45:25;;;;;;;27.90;18.42;;;8.10;99.90;;;;;;5072007;28;20630;-70
2023/12/18 09:47:54;;;;;;;31.83;19.95;;;8.10;99.90;;;;;;5071979;28;20079;-70
2023/12/18 09:50:20;;;;;;;39.53;20.77;;;8.10;99.90;;;;;;5071905;28;20047;-70
2023/12/18 09:53:00;;;;;;;36.47;21.15;;;8.20;99.90;;;;;;5071800;28;20040;-70
2023/12/18 09:55:26;;;;;;;29.73;20.25;;;8.20;99.90;;;;;;5071908;28;20055;-70
2023/12/18 09:57:56;;;;;;;38.70;19.85;;;8.20;99.90;;;;;;5071839;28;20055;-70
2023/12/18 10:00:22;;;;;;;38.53;21.08;;;8.20;99.90;;;;;;5073024;28;20464;-70
2023/12/18 10:02:48;;;;;;;30.58;19.17;;;8.20;99.90;;;;;;5071691;28;20066;-70
2023/12/18 10:05:13;;;;;;;29.45;19.45;;;8.20;99.90;;;;;;5072957;28;20044;-70
2023/12/18 10:07:40;;;;;;;41.35;20.88;;;8.20;99.90;;;;;;5071662;28;20041;-70
2023/12/18 10:10:05;;;;;;;32.65;21.50;;;8.20;99.90;;;;;;5073218;28;20064;-70
2023/12/18 10:12:32;;;;;;;40.78;21.13;;;8.30;99.90;;;;;;5071611;28;20489;-70
2023/12/18 10:14:58;;;;;;;35.70;19.95;;;8.30;99.90;;;;;;5071668;28;20051;-69
2023/12/18 10:17:24;;;;;;;32.72;19.58;;;8.30;99.90;;;;;;5071915;28;20127;-70
2023/12/18 10:19:50;;;;;;;43.47;20.85;;;8.30;99.90;;;;;;5071644;28;20432;-70
2023/12/18 10:22:19;;;;;;;33.97;19.48;;;8.30;99.90;;;;;;5072660;28;20032;-70
2023/12/18 10:24:45;;;;;;;34.42;20.10;;;8.30;99.90;;;;;;5071634;28;20392;-70
2023/12/18 10:27:10;;;;;;;33.53;20.50;;;8.30;99.90;;;;;;5072647;28;20536;-70
2023/12/18 10:29:36;;;;;;;33.38;20.65;;;8.40;99.90;;;;;;5071795;28;20040;-70
2023/12/18 10:32:02;;;;;;;28.40;19.33;;;8.40;99.90;;;;;;5072171;28;20397;-70
2023/12/18 10:34:27;;;;;;;37.85;20.27;;;8.40;99.90;;;;;;5075486;28;20040;-70
2023/12/18 10:36:57;;;;;;;39.00;20.55;;;8.40;99.90;;;;;;5076896;28;20048;-71
2023/12/18 10:39:29;;;;;;;41.53;20.52;;;8.40;99.90;;;;;;5076933;28;20044;-70
2023/12/18 10:42:00;;;;;;;38.30;21.27;;;8.40;99.90;;;;;;5075286;28;20082;-70
2023/12/18 10:44:29;;;;;;;39.30;20.77;;;8.40;99.90;;;;;;5075278;28;20048;-70
2023/12/18 10:46:56;;;;;;;35.63;21.55;;;8.40;99.90;;;;;;5075174;28;20119;-70
2023/12/18 10:49:25;;;;;;;38.47;21.58;;;8.40;99.90;;;;;;5076693;28;20067;-70
2023/12/18 10:51:51;;;;;;;36.40;20.70;;;8.40;99.90;;;;;;5076559;28;20039;-70
2023/12/18 10:54:18;;;;;;;42.75;20.63;;;8.40;99.90;;;;;;5075305;28;20064;-70
2023/12/18 10:56:45;;;;;;;37.75;21.08;;;8.50;99.90;;;;;;5075300;28;20067;-70
2023/12/18 10:59:13;;;;;;;35.05;20.48;;;8.50;99.90;;;;;;5075037;28;20049;-69
2023/12/18 11:01:39;;;;;;;32.15;20.33;;;8.50;99.90;;;;;;5074850;28;20037;-69
2023/12/18 11:04:05;;;;;;;34.13;20.98;;;8.50;99.90;;;;;;5074960;28;20123;-69
2023/12/18 11:06:32;;;;;;;34.70;21.13;;;8.50;99.90;;;;;;5074755;28;20079;-69
2023/12/18 11:08:57;;;;;;;38.53;21.55;;;8.50;99.90;;;;;;5075050;28;20040;-69
2023/12/18 11:11:24;;;;;;;34.55;21.67;;;8.50;99.90;;;;;;5074715;28;20481;-69
2023/12/18 11:14:34;;;;;;;33.42;20.40;;;8.50;99.90;;;;;;5075913;28;20509;-70
2023/12/18 11:17:19;;;;;;;43.33;21.02;;;8.50;99.90;;;;;;5063336;28;20058;-70
2023/12/18 11:20:01;;;;;;;38.83;21.40;;;8.50;99.90;;;;;;5076173;28;20041;-70
2023/12/18 11:22:44;;;;;;;34.22;21.35;;;8.50;99.90;;;;;;5074411;28;20048;-70
2023/12/18 11:25:10;;;;;;;38.00;21.30;;;8.60;99.90;;;;;;5074818;28;20046;-70
2023/12/18 11:27:36;;;;;;;37.63;21.08;;;8.50;99.90;;;;;;5075914;28;20040;-70
2023/12/18 11:30:02;;;;;;;32.08;20.67;;;8.60;99.90;;;;;;5074698;28;20490;-70
2023/12/18 11:32:43;;;;;;;36.80;20.23;;;8.60;99.90;;;;;;5074997;28;20048;-70
2023/12/18 11:35:13;;;;;;;34.70;20.33;;;8.70;99.90;;;;;;5074288;28;20036;-69
2023/12/18 11:37:45;;;;;;;37.55;20.55;;;8.60;99.90;;;;;;5075787;28;20082;-69
2023/12/18 11:40:30;;;;;;;44.53;21.92;;;8.60;99.90;;;;;;5074452;28;20113;-69
2023/12/18 11:42:56;;;;;;;34.90;20.83;;;8.60;99.90;;;;;;5057469;28;20413;-69
2023/12/18 11:45:25;;;;;;;30.23;20.50;;;8.60;99.90;;;;;;5074168;28;20036;-69
2023/12/18 11:48:00;;;;;;;38.15;21.30;;;8.60;99.90;;;;;;5075573;28;20044;-69
2023/12/18 11:50:27;;;;;;;29.42;20.48;;;8.60;99.90;;;;;;5074024;28;20076;-69
2023/12/18 11:52:56;;;;;;;37.67;20.25;;;8.60;99.90;;;;;;5074018;28;20493;-70
2023/12/18 11:55:39;;;;;;;33.25;19.77;;;8.70;99.90;;;;;;5073903;28;20449;-70
2023/12/18 11:58:07;;;;;;;31.98;20.38;;;8.70;99.90;;;;;;5074148;28;20074;-70
2023/12/18 12:00:33;;;;;;;35.63;20.58;;;8.70;99.90;;;;;;5073801;28;20048;-70
2023/12/18 12:03:00;;;;;;;34.13;19.90;;;8.70;99.90;;;;;;5057175;28;20124;-70
2023/12/18 12:05:26;;;;;;;30.10;19.60;;;8.70;99.90;;;;;;5075298;28;20061;-70
2023/12/18 12:07:52;;;;;;;36.10;20.35;;;8.70;99.90;;;;;;5075202;28;20051;-70
2023/12/18 12:10:18;;;;;;;39.67;21.02;;;8.70;99.90;;;;;;5073700;28;20032;-72
2023/12/18 12:12:44;;;;;;;34.28;20.40;;;8.70;99.90;;;;;;5057108;28;20040;-70
2023/12/18 12:15:10;;;;;;;34.33;20.98;;;8.70;99.90;;;;;;5074798;28;20085;-70
2023/12/18 12:17:36;;;;;;;31.58;20.63;;;8.70;99.90;;;;;;5075087;28;20040;-70
2023/12/18 12:20:07;;;;;;;41.47;21.05;;;8.70;99.90;;;;;;5075002;28;20125;-70
2023/12/18 12:22:34;;;;;;;34.15;21.35;;;8.60;99.90;;;;;;5073229;28;20049;-70
2023/12/18 12:24:59;;;;;;;38.63;21.80;;;8.60;99.90;;;;;;5073345;28;20055;-69
2023/12/18 12:27:25;;;;;;;34.03;21.13;;;8.60;99.90;;;;;;5073232;28;20040;-70
2023/12/18 12:29:51;;;;;;;40.70;22.00;;;8.60;99.90;;;;;;5073249;28;20040;-70
2023/12/18 12:32:18;;;;;;;34.35;20.92;;;8.60;99.90;;;;;;5073514;28;20102;-72